Terminal Aerodrome Forecast
Issued by NWS

Home | Current Version | Previous Version | Graphics & Text | Print | Product List | Glossary On
Versions: 1 2 3 4 5 6 7 8 9 10 11 12 13 14 15 16 17 18 19 20 21 22 23
578
FTUS43 KBIS 251728
TAFMOT
TAF
KMOT 251728Z 2518/2618 12003KT P6SM SCT020 OVC050
     FM260800 15004KT P6SM VCSH SCT025 OVC030
     FM261300 VRB03KT P6SM BKN015 OVC025
     FM261600 19004KT P6SM BKN020=

USA.gov is the U.S. government's official web portal to all federal, state and local government web resources and services.